• Join FlightAware (Why Join?)
  • Login
  • US Flag 
10:29AM EDT


 

Airport Tracker/Info


-or-


 

Live Flight TrackerFlight Track Log ✈ SKV7370 ✈ 07-Feb-2014 ✈ CYYZ - KPHL

Flight Track Log - Related Links

Times and Time Zones

All times are in EST time to prevent confusion due to time zone crossing. See the SKV7370 flight status page for this flight to view local times or setup timezone preferences in your user account.

Time Position Orientation Groundspeed Altitude Reporting Facility
EST Latitude Longitude Course Direction KTS MPH feet Rate Location/Type
09:36PM 43.6500 -79.6167 117° Southeast 120 138 2,500  Level Toronto Center
09:37PM 43.6000 -79.6500 206° Southwest 190 219 4,600 2,160 Climbing Toronto Center
09:38PM 43.5500 -79.6333 166° South 270 311 6,900 1,200 Climbing Toronto Center
09:39PM 43.5000 -79.5333 125° Southeast 290 334 7,000 300 Climbing Toronto Center
09:40PM 43.5167 -79.4333 77° East 300 345 7,600 1,800 Climbing Toronto Center
09:41PM 43.5167 -79.3167 90° East 320 368 10,700 2,400 Climbing Toronto Center
09:42PM 43.3662 -78.8861 117° Southeast  Level FlightAware Approximate
09:42PM 43.5000 -79.1667 99° East 370 426 12,400  Level Toronto Center
09:43PM 43.4667 -79.0333 109° East 370 426 14,800 2,160 Climbing Toronto Center
09:44PM 43.4167 -78.9000 117° Southeast 390 449 16,800 1,800 Climbing Toronto Center
09:45PM 43.3667 -78.7833 120° Southeast 400 460 18,500 1,620 Climbing Toronto Center
09:46PM 43.3219 -78.7136 131° Southeast 401 461 19,800 1,740 Climbing Cleveland Center
09:47PM 43.2456 -78.5569 124° Southeast 411 473 21,800 1,560 Climbing Cleveland Center
09:48PM 43.1786 -78.4206 124° Southeast 425 489 23,000 1,020 Climbing Cleveland Center
09:49PM 43.1089 -78.2803 124° Southeast 441 507 24,000 1,080 Climbing Cleveland Center
09:50PM 43.0356 -78.1319 124° Southeast 462 532 25,300 1,320 Climbing Cleveland Center
09:51PM 42.9294 -78.0406 148° Southeast 451 519 26,800 1,260 Climbing Cleveland Center
09:52PM 42.8183 -78.0392 179° South 402 463 27,900 1,080 Climbing Cleveland Center
09:53PM 42.7075 -78.0472 183° South 405 466 29,000 480 Climbing Cleveland Center
09:54PM 42.5731 -78.0567 183° South 407 468 29,000  Level Cleveland Center
09:55PM 42.4611 -78.0631 182° South 407 468 29,000  Level Cleveland Center
09:56PM 42.3508 -78.0717 183° South 403 464 29,000  Level Cleveland Center
09:57PM 42.2389 -78.0786 183° South 404 465 29,000  Level Cleveland Center
09:58PM 42.1264 -78.0881 184° South 406 467 29,000  Level Cleveland Center
09:59PM 42.0153 -78.0947 183° South 403 464 29,000  Level Cleveland Center
10:00PM 41.9036 -78.1033 183° South 404 465 29,000 -360 Level Cleveland Center
10:01PM 41.7719 -78.1106 182° South 405 466 28,300 -840 Descending Cleveland Center
10:02PM 41.6622 -78.1169 182° South 399 459 27,300 -660 Descending Cleveland Center
10:03PM 41.5517 -78.1244 183° South 398 458 27,000 -180 Descending Cleveland Center
10:04PM 41.4406 -78.1308 182° South 400 460 27,000  Level Cleveland Center
10:05PM 41.3744 -78.1339 182° South 402 463 27,000  Level New York Center
10:06PM 41.2633 -78.1411 183° South 424 488 27,000  Level New York Center
10:07PM 41.1525 -78.1153 170° South 414 476 27,000  Level New York Center
10:07PM 41.1053 -78.0906 158° South 430 495 27,000  Level Cleveland Center
10:08PM 40.9919 -78.0322 159° South 434 499 27,000 -660 Level Cleveland Center
10:09PM 40.8861 -77.9511 150° Southeast 462 532 25,700 -1,320 Descending Cleveland Center
10:10PM 40.8008 -77.8158 130° Southeast 479 551 24,300 -1,620 Descending Cleveland Center
10:11PM 40.7142 -77.6544 125° Southeast 474 545 22,500 -1,620 Descending Cleveland Center
10:12PM 40.6800 -77.4897 105° East 468 539 21,000 -1,500 Descending Cleveland Center
10:13PM 40.6258 -77.3442 116° Southeast 449 517 19,500 -1,500 Descending Cleveland Center
10:14PM 40.5347 -77.2625 146° Southeast 399 459 18,000 -780 Descending Cleveland Center
10:15PM 40.4453 -77.1878 148° Southeast 376 433 18,000 -480 Level Cleveland Center
10:16PM 40.3561 -77.1164 149° Southeast 373 429 17,100 -1,200 Descending Cleveland Center
10:17PM 40.2875 -77.0147 131° Southeast 397 457 15,600 -1,020 Descending Cleveland Center
10:19PM 40.2439 -76.8217 106° East 389 448 14,900 -660 Descending New York Center
10:20PM 40.2114 -76.6800 107° East 405 466 14,200 -660 Descending New York Center
10:21PM 40.1803 -76.5497 107° East 408 470 13,600 -600 Descending New York Center
10:22PM 40.1475 -76.4083 107° East 408 470 13,000 -660 Descending New York Center
10:23PM 40.1197 -76.2514 103° East 402 463 12,300 -660 Descending New York Center
10:24PM 40.1072 -76.1119 97° East 395 455 11,700 -660 Descending New York Center
10:25PM 40.0992 -75.9675 94° East 395 455 11,000 -720 Descending New York Center
10:26PM 40.0864 -75.8283 97° East 389 448 10,300 -900 Descending New York Center
10:27PM 40.0808 -75.7139 94° East 369 425 9,300 -1,380 Descending New York Center
10:28PM 40.0822 -75.5808 89° East 337 388 7,600 -1,560 Descending New York Center
10:29PM 40.0858 -75.4864 87° East 309 356 6,200 -840 Descending New York Center
10:30PM 40.0864 -75.3697 90° East 293 337 6,000 -180 Descending New York Center
10:31PM 40.1000 -75.2667 80° East 297 342 5,900 -480 Descending Philadelphia TRACON
10:32PM 40.0833 -75.1667 102° East 239 275 5,100 -960 Descending Philadelphia TRACON
10:33PM 40.0667 -75.0833 105° East 245 282 4,000 -600 Descending Philadelphia TRACON
10:34PM 40.0500 -75.0000 105° East 245 282 4,000 -60 Level Philadelphia TRACON
10:35PM 40.0333 -74.9333 108° East 245 282 3,900 -540 Descending Philadelphia TRACON
10:36PM 39.9667 -74.9000 159° South 222 255 3,000 -480 Descending Philadelphia TRACON
10:37PM 39.9333 -74.9500 229° Southwest 198 228 3,000  Level Philadelphia TRACON
10:38PM 39.9167 -75.0167 252° West 165 190 3,000 -240 Level Philadelphia TRACON
10:39PM 39.9000 -75.0667 247° West 166 191 2,600 -660 Descending Philadelphia TRACON
10:40PM 39.9000 -75.1167 270° West 122 140 1,700 -780 Descending Philadelphia TRACON
10:41PM 39.8833 -75.1667 247° West 112 129 1,100 -660 Descending Philadelphia TRACON
10:42PM 39.8833 -75.2000 270° West 112 129 400 -660 Descending Philadelphia TRACON